createdAt,value
2022-08-13T00:01:42.397Z,46.72
2022-08-13T00:04:20.387Z,46.84
2022-08-13T00:07:07.584Z,47.41
2022-08-13T00:09:41.072Z,47.61
2022-08-13T00:12:32.157Z,47.78
2022-08-13T00:15:01.781Z,47.72
2022-08-13T00:17:37.173Z,48.02
2022-08-13T00:20:21.059Z,47.96
2022-08-13T00:23:00.472Z,48.44
2022-08-13T00:25:43.563Z,48.76
2022-08-13T00:28:16.387Z,49.13
2022-08-13T00:30:47.997Z,48.66
2022-08-13T00:33:19.812Z,48.48
2022-08-13T00:36:02.037Z,48.92
2022-08-13T00:38:36.653Z,49.63
2022-08-13T00:41:07.307Z,49.58
2022-08-13T00:43:45.691Z,49.37
2022-08-13T00:46:14.488Z,50.10
2022-08-13T00:48:45.850Z,50.00
2022-08-13T00:51:23.490Z,50.29
2022-08-13T00:54:11.471Z,50.19
2022-08-13T00:56:42.109Z,49.88
2022-08-13T00:59:13.356Z,50.28
2022-08-13T01:01:49.103Z,50.23
2022-08-13T01:05:08.621Z,50.35
2022-08-13T01:07:48.082Z,50.47
2022-08-13T01:10:21.600Z,50.95
2022-08-13T01:12:54.439Z,50.95
2022-08-13T01:15:24.963Z,50.88
2022-08-13T01:17:58.028Z,51.11
2022-08-13T01:20:33.259Z,51.12
2022-08-13T01:23:08.982Z,50.79
2022-08-13T01:25:52.968Z,50.97
2022-08-13T01:28:24.108Z,51.18
2022-08-13T01:30:53.323Z,51.12
2022-08-13T01:33:22.294Z,51.35
2022-08-13T01:35:53.324Z,51.61
2022-08-13T01:38:27.566Z,51.80
2022-08-13T01:40:56.864Z,52.10
2022-08-13T01:45:58.796Z,52.19
2022-08-13T01:48:48.291Z,52.09
2022-08-13T01:51:32.580Z,52.20
2022-08-13T01:54:37.875Z,52.17
2022-08-13T01:57:10.134Z,52.45
2022-08-13T02:00:01.759Z,52.36
2022-08-13T02:02:44.526Z,52.36
2022-08-13T02:06:19.721Z,52.93
2022-08-13T02:08:05.944Z,52.92
2022-08-13T02:10:39.289Z,53.12
2022-08-13T02:13:16.855Z,53.27
2022-08-13T02:15:48.137Z,53.59
2022-08-13T02:18:24.766Z,53.46
2022-08-13T02:20:57.283Z,53.64
2022-08-13T02:23:59.885Z,53.85
2022-08-13T02:26:26.375Z,54.29
2022-08-13T02:29:00.811Z,53.90
2022-08-13T02:32:15.152Z,54.41
2022-08-13T02:34:20.254Z,54.75
2022-08-13T02:37:00.001Z,54.99
2022-08-13T02:39:43.695Z,55.48
2022-08-13T02:42:16.199Z,55.54
2022-08-13T02:44:45.856Z,56.05
2022-08-13T02:47:17.191Z,56.00
2022-08-13T02:49:47.926Z,55.70
2022-08-13T02:52:16.583Z,56.09
2022-08-13T02:54:54.558Z,56.09
2022-08-13T02:57:27.178Z,56.13
2022-08-13T03:00:05.986Z,56.03
2022-08-13T03:02:40.614Z,55.64
2022-08-13T03:05:13.561Z,56.76
2022-08-13T03:07:51.387Z,56.73
2022-08-13T03:10:32.141Z,56.45
2022-08-13T03:13:08.867Z,56.56
2022-08-13T03:15:45.161Z,56.93
2022-08-13T03:18:23.510Z,57.22
2022-08-13T03:20:54.512Z,57.19
2022-08-13T03:23:25.937Z,57.37
2022-08-13T03:25:54.294Z,57.63
2022-08-13T03:28:26.517Z,57.52
2022-08-13T03:30:55.956Z,57.58
2022-08-13T03:33:26.271Z,57.64
2022-08-13T03:35:56.197Z,57.75
2022-08-13T03:38:24.129Z,57.49
2022-08-13T03:41:03.647Z,57.82
2022-08-13T03:43:33.949Z,58.07
2022-08-13T03:46:22.920Z,58.26
2022-08-13T03:48:56.495Z,58.16
2022-08-13T03:51:35.974Z,57.65
2022-08-13T03:54:05.102Z,57.72
2022-08-13T03:56:35.604Z,57.91
2022-08-13T03:59:06.035Z,58.01
2022-08-13T04:01:33.950Z,58.37
2022-08-13T04:04:03.602Z,58.86
2022-08-13T04:06:31.767Z,59.04
2022-08-13T04:09:04.083Z,58.98
2022-08-13T04:11:35.038Z,58.97
2022-08-13T04:14:34.749Z,59.11
2022-08-13T04:16:53.381Z,59.16
2022-08-13T04:19:21.259Z,59.36
2022-08-13T04:21:52.648Z,59.45
2022-08-13T04:24:22.052Z,59.34
2022-08-13T04:26:55.376Z,59.39
2022-08-13T04:29:23.539Z,59.60
2022-08-13T04:31:54.669Z,59.60
2022-08-13T04:34:34.064Z,60.07
2022-08-13T04:37:21.435Z,59.83
2022-08-13T04:40:08.229Z,60.22
2022-08-13T04:42:50.412Z,60.36
2022-08-13T04:45:23.559Z,60.12
2022-08-13T04:47:55.931Z,60.13
2022-08-13T04:50:28.151Z,60.22
2022-08-13T04:52:59.308Z,60.19
2022-08-13T04:55:36.855Z,60.28
2022-08-13T04:58:17.338Z,60.12
2022-08-13T05:00:52.398Z,59.64
2022-08-13T05:03:32.919Z,59.82
2022-08-13T05:06:03.093Z,59.38
2022-08-13T05:08:32.548Z,59.66
2022-08-13T05:11:02.091Z,60.12
2022-08-13T05:13:43.202Z,60.20
2022-08-13T05:16:15.109Z,59.61
2022-08-13T05:18:53.171Z,59.74
2022-08-13T05:21:23.217Z,59.99
2022-08-13T05:26:08.286Z,59.64
2022-08-13T05:26:57.000Z,59.15
2022-08-13T05:31:58.169Z,59.14
2022-08-13T05:34:30.522Z,59.10
2022-08-13T05:38:15.331Z,58.85
2022-08-13T05:39:50.498Z,58.62
2022-08-13T05:42:24.404Z,58.71
2022-08-13T05:45:00.084Z,58.46
2022-08-13T05:47:29.353Z,58.51
2022-08-13T05:50:11.325Z,58.15
2022-08-13T05:52:46.874Z,58.32
2022-08-13T05:56:05.894Z,58.27
2022-08-13T05:58:07.000Z,58.27
2022-08-13T06:01:11.889Z,58.10
2022-08-13T06:04:17.628Z,57.77
2022-08-13T06:06:34.581Z,57.49
2022-08-13T06:09:09.533Z,57.64
2022-08-13T06:12:08.162Z,57.32
2022-08-13T06:14:32.996Z,57.25
2022-08-13T06:17:01.801Z,57.10
2022-08-13T06:19:33.650Z,57.11
2022-08-13T06:22:05.881Z,56.52
2022-08-13T06:24:52.659Z,56.06
2022-08-13T06:27:26.486Z,56.24
2022-08-13T06:30:12.930Z,55.86
2022-08-13T06:34:09.068Z,55.50
2022-08-13T06:35:44.582Z,55.09
2022-08-13T06:38:22.168Z,54.34
2022-08-13T06:40:51.103Z,53.28
2022-08-13T06:43:21.076Z,53.47
2022-08-13T06:45:50.713Z,52.41
2022-08-13T06:48:34.627Z,51.93
2022-08-13T06:51:05.589Z,50.99
2022-08-13T06:54:25.997Z,50.61
2022-08-13T06:56:34.875Z,50.19
2022-08-13T06:59:13.339Z,49.82
2022-08-13T07:02:07.850Z,49.59
2022-08-13T07:04:38.082Z,49.59
2022-08-13T07:07:07.580Z,49.14
2022-08-13T07:09:42.474Z,49.07
2022-08-13T07:12:14.073Z,48.78
2022-08-13T07:14:47.254Z,49.27
2022-08-13T07:17:31.544Z,48.08
2022-08-13T07:20:08.275Z,48.19
2022-08-13T07:24:37.381Z,47.85
2022-08-13T07:25:56.066Z,47.83
2022-08-13T07:28:46.747Z,47.95
2022-08-13T07:31:17.264Z,47.71
2022-08-13T07:33:54.756Z,47.58
2022-08-13T07:36:29.083Z,47.52
2022-08-13T07:38:59.115Z,46.88
2022-08-13T07:41:30.866Z,47.01
2022-08-13T07:44:03.903Z,46.96
2022-08-13T07:46:44.437Z,46.47
2022-08-13T07:49:20.380Z,46.77
2022-08-13T07:51:50.381Z,46.57
2022-08-13T07:54:20.066Z,46.43
2022-08-13T07:59:24.542Z,46.16
2022-08-13T08:02:20.548Z,45.74
2022-08-13T08:04:54.516Z,45.10
2022-08-13T08:07:23.701Z,44.72
2022-08-13T08:09:58.858Z,44.60
2022-08-13T08:12:47.435Z,44.41
2022-08-13T08:15:59.810Z,44.05
2022-08-13T08:18:34.609Z,43.00
2022-08-13T08:21:46.693Z,43.32
2022-08-13T08:23:58.238Z,42.18
2022-08-13T08:26:28.158Z,42.34
2022-08-13T08:28:58.453Z,42.98
2022-08-13T08:31:59.911Z,42.34
2022-08-13T08:34:19.195Z,42.43
2022-08-13T08:36:49.738Z,41.81
2022-08-13T08:39:37.638Z,41.87
2022-08-13T08:42:26.498Z,41.14
2022-08-13T08:44:59.825Z,40.99
2022-08-13T08:47:57.798Z,40.85
2022-08-13T08:50:27.998Z,41.27
2022-08-13T08:53:34.240Z,41.42
2022-08-13T08:56:09.355Z,40.33
2022-08-13T08:58:42.667Z,41.22
2022-08-13T09:01:13.633Z,41.34
2022-08-13T09:03:49.885Z,40.48
2022-08-13T09:06:51.485Z,40.77
2022-08-13T09:09:18.856Z,41.29
2022-08-13T09:11:53.972Z,41.27
2022-08-13T09:14:27.478Z,41.62
2022-08-13T09:16:59.866Z,41.61
2022-08-13T09:19:33.980Z,41.13
2022-08-13T09:22:24.042Z,41.68
2022-08-13T09:24:57.737Z,40.65
2022-08-13T09:28:03.376Z,41.53
2022-08-13T09:30:23.530Z,40.67
2022-08-13T09:32:58.004Z,41.09
2022-08-13T09:35:28.890Z,40.75
2022-08-13T09:38:05.540Z,40.52
2022-08-13T09:40:46.604Z,41.00
2022-08-13T09:43:44.527Z,40.53
2022-08-13T09:46:10.519Z,40.78
2022-08-13T09:48:40.768Z,40.55
2022-08-13T09:51:15.170Z,39.59
2022-08-13T09:54:06.109Z,39.42
2022-08-13T09:56:39.158Z,40.23
2022-08-13T09:59:09.262Z,39.78
2022-08-13T10:01:55.094Z,39.79
2022-08-13T10:04:28.689Z,39.50
2022-08-13T10:07:01.264Z,39.26
2022-08-13T10:09:34.280Z,40.19
2022-08-13T10:12:17.741Z,38.37
2022-08-13T10:14:55.137Z,38.87
2022-08-13T10:17:46.997Z,38.96
2022-08-13T10:20:20.098Z,39.32
2022-08-13T10:22:48.760Z,38.83
2022-08-13T10:25:18.229Z,38.14
2022-08-13T10:27:50.253Z,38.26
2022-08-13T10:30:59.083Z,37.84
2022-08-13T10:33:14.179Z,38.18
2022-08-13T10:35:44.367Z,37.67
2022-08-13T10:38:19.408Z,36.21
2022-08-13T10:40:48.402Z,35.97
2022-08-13T10:43:25.117Z,37.21
2022-08-13T10:46:02.518Z,37.62
2022-08-13T10:48:33.713Z,37.79
2022-08-13T10:51:06.029Z,36.67
2022-08-13T10:53:50.915Z,34.26
2022-08-13T10:56:21.990Z,35.04
2022-08-13T10:58:56.434Z,34.71
2022-08-13T11:01:25.503Z,35.16
2022-08-13T11:04:05.879Z,34.40
2022-08-13T11:06:40.278Z,35.88
2022-08-13T11:09:26.015Z,36.08
2022-08-13T11:11:58.991Z,35.37
2022-08-13T11:14:37.817Z,34.57
2022-08-13T11:17:35.482Z,34.81
2022-08-13T11:20:07.036Z,35.45
2022-08-13T11:22:38.522Z,35.61
2022-08-13T11:25:18.744Z,35.78
2022-08-13T11:27:56.655Z,35.27
2022-08-13T11:30:31.473Z,35.57
2022-08-13T11:33:05.776Z,35.66
2022-08-13T11:35:35.315Z,35.16
2022-08-13T11:38:09.681Z,35.25
2022-08-13T11:40:39.165Z,35.81
2022-08-13T11:43:12.501Z,35.50
2022-08-13T11:45:49.208Z,34.98
2022-08-13T11:48:19.396Z,35.19
2022-08-13T11:50:48.441Z,35.06
2022-08-13T11:53:20.605Z,34.84
2022-08-13T11:56:00.911Z,34.25
2022-08-13T11:58:47.415Z,34.46
2022-08-13T12:01:23.827Z,33.62
2022-08-13T12:04:17.026Z,33.15
2022-08-13T12:06:40.718Z,34.02
2022-08-13T12:09:22.093Z,33.79
2022-08-13T12:12:09.412Z,33.79
2022-08-13T12:14:40.209Z,33.54
2022-08-13T12:17:09.220Z,33.93
2022-08-13T12:19:38.822Z,32.83
2022-08-13T12:22:07.218Z,33.11
2022-08-13T12:24:36.625Z,32.78
2022-08-13T12:27:08.102Z,33.26
2022-08-13T12:29:45.554Z,32.81
2022-08-13T12:32:14.982Z,32.91
2022-08-13T12:34:48.809Z,32.31
2022-08-13T12:37:24.250Z,32.54
2022-08-13T12:39:55.799Z,32.41
2022-08-13T12:42:28.066Z,32.75
2022-08-13T12:45:09.472Z,32.23
2022-08-13T12:47:49.689Z,32.08
2022-08-13T12:50:20.679Z,32.04
2022-08-13T12:52:50.561Z,31.80
2022-08-13T12:55:33.013Z,32.32
2022-08-13T12:58:15.369Z,32.71
2022-08-13T13:00:44.346Z,32.67
2022-08-13T13:03:13.148Z,32.42
2022-08-13T13:05:43.253Z,32.29
2022-08-13T13:08:30.640Z,32.09
2022-08-13T13:11:13.051Z,31.33
2022-08-13T13:13:54.113Z,32.23
2022-08-13T13:16:36.303Z,31.57
2022-08-13T13:19:14.914Z,31.60
2022-08-13T13:21:45.585Z,31.55
2022-08-13T13:24:18.390Z,31.96
2022-08-13T13:27:00.406Z,31.98
2022-08-13T13:29:36.055Z,31.74
2022-08-13T13:32:49.213Z,31.70
2022-08-13T13:35:01.353Z,31.60
2022-08-13T13:38:04.632Z,30.90
2022-08-13T13:40:32.221Z,31.39
2022-08-13T13:43:22.848Z,31.90
2022-08-13T13:45:50.767Z,30.72
2022-08-13T13:48:23.796Z,30.27
2022-08-13T13:50:52.712Z,30.50
2022-08-13T13:53:23.780Z,30.92
2022-08-13T13:56:01.928Z,30.64
2022-08-13T13:58:50.460Z,31.30
2022-08-13T14:01:22.879Z,30.64
2022-08-13T14:03:51.109Z,30.68
2022-08-13T14:06:28.086Z,30.53
2022-08-13T14:08:56.485Z,30.10
2022-08-13T14:11:24.440Z,29.92
2022-08-13T14:13:53.623Z,30.24
2022-08-13T14:16:22.186Z,30.35
2022-08-13T14:18:51.675Z,29.62
2022-08-13T14:21:22.339Z,29.35
2022-08-13T14:23:53.490Z,29.53
2022-08-13T14:26:25.125Z,29.54
2022-08-13T14:28:55.805Z,29.58
2022-08-13T14:31:24.706Z,28.43
2022-08-13T14:33:58.535Z,28.51
2022-08-13T14:36:30.559Z,28.39
2022-08-13T14:39:02.701Z,27.67
2022-08-13T14:41:43.329Z,27.62
2022-08-13T14:44:33.690Z,28.24
2022-08-13T14:47:09.022Z,28.58
2022-08-13T14:49:55.753Z,28.20
2022-08-13T14:52:38.934Z,28.33
2022-08-13T14:55:18.528Z,28.53
2022-08-13T14:57:47.190Z,27.97
2022-08-13T15:00:24.965Z,27.29
2022-08-13T15:03:16.996Z,27.19
2022-08-13T15:05:53.602Z,26.50
2022-08-13T15:08:30.311Z,26.86
2022-08-13T15:11:06.530Z,27.32
2022-08-13T15:13:53.644Z,27.26
2022-08-13T15:16:32.477Z,27.40
2022-08-13T15:19:10.012Z,27.36
2022-08-13T15:21:47.211Z,27.19
2022-08-13T15:24:37.431Z,27.16
2022-08-13T15:27:26.732Z,27.06
2022-08-13T15:29:55.770Z,26.38
2022-08-13T15:32:33.822Z,26.70
2022-08-13T15:35:03.935Z,26.21
2022-08-13T15:37:56.648Z,26.17
2022-08-13T15:40:30.416Z,26.45
2022-08-13T15:43:08.282Z,26.49
2022-08-13T15:45:41.603Z,26.78
2022-08-13T15:48:17.993Z,26.22
2022-08-13T15:50:50.735Z,26.80
2022-08-13T15:53:21.160Z,26.74
2022-08-13T15:55:56.426Z,27.03
2022-08-13T15:58:28.489Z,26.44
2022-08-13T16:01:06.677Z,26.46
2022-08-13T16:03:55.274Z,26.88
2022-08-13T16:06:30.300Z,27.23
2022-08-13T16:09:04.612Z,27.16
2022-08-13T16:11:43.191Z,26.70
2022-08-13T16:14:19.487Z,26.80
2022-08-13T16:16:54.168Z,27.37
2022-08-13T16:19:51.389Z,27.10
2022-08-13T16:22:17.389Z,27.12
2022-08-13T16:24:51.119Z,27.39
2022-08-13T16:27:24.715Z,26.94
2022-08-13T16:29:58.483Z,26.85
2022-08-13T16:32:31.925Z,27.77
2022-08-13T16:35:02.415Z,27.42
2022-08-13T16:37:48.698Z,26.97
2022-08-13T16:40:20.987Z,26.91
2022-08-13T16:42:49.847Z,27.64
2022-08-13T16:45:22.470Z,27.83
2022-08-13T16:47:55.076Z,27.51
2022-08-13T16:50:32.402Z,27.81
2022-08-13T16:53:00.685Z,28.41
2022-08-13T16:55:31.627Z,27.60
2022-08-13T16:58:05.719Z,27.80
2022-08-13T17:00:36.956Z,27.95
2022-08-13T17:03:47.966Z,28.21
2022-08-13T17:06:32.497Z,28.00
2022-08-13T17:09:16.133Z,28.12
2022-08-13T17:11:46.947Z,28.76
2022-08-13T17:14:17.714Z,28.43
2022-08-13T17:16:48.066Z,28.44
2022-08-13T17:19:18.637Z,28.69
2022-08-13T17:21:53.224Z,28.84
2022-08-13T17:24:23.363Z,28.45
2022-08-13T17:26:56.187Z,28.89
2022-08-13T17:30:03.108Z,28.26
2022-08-13T17:32:15.180Z,28.95
2022-08-13T17:34:44.129Z,28.74
2022-08-13T17:37:18.362Z,28.81
2022-08-13T17:40:00.484Z,28.56
2022-08-13T17:44:01.231Z,29.01
2022-08-13T17:45:28.536Z,28.84
2022-08-13T17:48:01.560Z,29.38
2022-08-13T17:50:32.387Z,29.23
2022-08-13T17:53:01.800Z,29.26
2022-08-13T17:55:37.421Z,29.23
2022-08-13T17:58:19.735Z,29.62
2022-08-13T18:01:17.130Z,29.84
2022-08-13T18:03:54.075Z,29.93
2022-08-13T18:06:27.511Z,30.08
2022-08-13T18:09:03.824Z,29.90
2022-08-13T18:11:42.040Z,30.04
2022-08-13T18:14:21.358Z,30.02
2022-08-13T18:17:28.407Z,30.57
2022-08-13T18:19:51.338Z,31.04
2022-08-13T18:22:27.172Z,30.95
2022-08-13T18:24:59.919Z,31.56
2022-08-13T18:28:15.981Z,31.71
2022-08-13T18:30:26.775Z,31.39
2022-08-13T18:33:02.305Z,32.49
2022-08-13T18:35:31.729Z,32.31
2022-08-13T18:38:01.860Z,33.36
2022-08-13T18:40:31.115Z,33.99
2022-08-13T18:42:59.046Z,33.46
2022-08-13T18:45:58.511Z,32.76
2022-08-13T18:48:16.812Z,33.19
2022-08-13T18:50:52.057Z,34.11
2022-08-13T18:53:31.855Z,33.62
2022-08-13T18:56:13.778Z,33.91
2022-08-13T18:58:43.989Z,34.42
2022-08-13T19:01:15.456Z,34.33
2022-08-13T19:04:00.752Z,34.72
2022-08-13T19:06:34.372Z,35.42
2022-08-13T19:09:07.266Z,35.44
2022-08-13T19:11:44.826Z,35.77
2022-08-13T19:14:19.945Z,36.11
2022-08-13T19:16:57.821Z,36.46
2022-08-13T19:19:53.901Z,36.31
2022-08-13T19:22:17.130Z,36.58
2022-08-13T19:24:45.070Z,37.19
2022-08-13T19:27:20.587Z,37.47
2022-08-13T19:29:52.958Z,37.71
2022-08-13T19:32:28.358Z,37.70
2022-08-13T19:34:58.557Z,37.47
2022-08-13T19:37:26.858Z,37.62
2022-08-13T19:39:59.359Z,37.82
2022-08-13T19:42:51.886Z,38.32
2022-08-13T19:45:25.171Z,38.51
2022-08-13T19:47:58.752Z,38.94
2022-08-13T19:50:31.573Z,38.96
2022-08-13T19:53:04.271Z,38.65
2022-08-13T19:55:54.183Z,39.17
2022-08-13T19:58:27.379Z,39.37
2022-08-13T20:00:57.673Z,39.39
2022-08-13T20:03:39.849Z,39.57
2022-08-13T20:06:14.211Z,39.53
2022-08-13T20:08:45.513Z,40.50
2022-08-13T20:11:23.407Z,40.27
2022-08-13T20:13:57.854Z,40.62
2022-08-13T20:16:27.029Z,41.02
2022-08-13T20:18:56.884Z,40.94
2022-08-13T20:21:44.148Z,40.84
2022-08-13T20:24:21.652Z,41.70
2022-08-13T20:27:06.844Z,42.28
2022-08-13T20:29:37.336Z,41.82
2022-08-13T20:32:06.139Z,41.73
2022-08-13T20:34:35.077Z,42.02
2022-08-13T20:37:08.969Z,42.11
2022-08-13T20:39:52.425Z,42.30
2022-08-13T20:42:28.229Z,42.34
2022-08-13T20:45:02.353Z,42.64
2022-08-13T20:47:47.584Z,42.43
2022-08-13T20:50:20.110Z,42.59
2022-08-13T20:52:50.272Z,42.48
2022-08-13T20:55:22.355Z,42.72
2022-08-13T20:58:02.105Z,43.48
2022-08-13T21:00:44.358Z,44.02
2022-08-13T21:03:20.033Z,44.44
2022-08-13T21:05:50.447Z,44.38
2022-08-13T21:08:20.203Z,44.35
2022-08-13T21:10:49.944Z,44.54
2022-08-13T21:13:22.934Z,44.94
2022-08-13T21:16:13.994Z,46.26
2022-08-13T21:18:42.554Z,45.72
2022-08-13T21:21:13.531Z,45.90
2022-08-13T21:23:45.924Z,45.54
2022-08-13T21:26:16.392Z,45.83
2022-08-13T21:29:33.373Z,45.79
2022-08-13T21:32:07.058Z,45.71
2022-08-13T21:34:22.994Z,45.62
2022-08-13T21:36:59.888Z,45.68
2022-08-13T21:39:29.881Z,45.58
2022-08-13T21:42:03.422Z,45.87
2022-08-13T21:44:31.837Z,45.64
2022-08-13T21:47:13.610Z,46.45
2022-08-13T21:49:45.315Z,46.13
2022-08-13T21:52:15.274Z,46.17
2022-08-13T21:54:50.697Z,45.82
2022-08-13T21:57:21.217Z,45.98
2022-08-13T21:59:52.277Z,46.86
2022-08-13T22:02:33.860Z,47.08
2022-08-13T22:05:03.875Z,46.80
2022-08-13T22:07:55.262Z,47.44
2022-08-13T22:10:21.610Z,48.03
2022-08-13T22:12:56.074Z,48.15
2022-08-13T22:15:26.525Z,48.30
2022-08-13T22:18:03.396Z,48.65
2022-08-13T22:20:31.373Z,48.73
2022-08-13T22:23:09.411Z,48.81
2022-08-13T22:25:38.523Z,48.23
2022-08-13T22:28:27.028Z,48.19
2022-08-13T22:30:55.502Z,48.43
2022-08-13T22:33:25.436Z,48.44
2022-08-13T22:35:57.793Z,48.61
2022-08-13T22:38:35.974Z,48.22
2022-08-13T22:41:05.839Z,48.09
2022-08-13T22:43:46.916Z,48.72
2022-08-13T22:46:17.272Z,48.43
2022-08-13T22:48:47.311Z,48.85
2022-08-13T22:51:19.172Z,48.82
2022-08-13T22:53:47.808Z,48.92
2022-08-13T22:56:18.133Z,49.14
2022-08-13T22:58:47.756Z,48.93
2022-08-13T23:01:19.145Z,49.59
2022-08-13T23:03:48.898Z,49.31
2022-08-13T23:06:33.024Z,49.82
2022-08-13T23:09:06.227Z,49.94
2022-08-13T23:11:34.401Z,49.77
2022-08-13T23:14:02.821Z,49.82
2022-08-13T23:16:30.916Z,49.72
2022-08-13T23:19:00.409Z,50.05
2022-08-13T23:21:30.777Z,50.14
2022-08-13T23:23:58.950Z,50.28
2022-08-13T23:26:30.254Z,50.48
2022-08-13T23:29:00.456Z,50.46
2022-08-13T23:31:29.620Z,50.83
2022-08-13T23:34:01.769Z,50.83
2022-08-13T23:36:32.151Z,50.71
2022-08-13T23:39:00.038Z,50.68
2022-08-13T23:41:27.990Z,50.93
2022-08-13T23:44:10.641Z,51.04
2022-08-13T23:46:51.859Z,51.25
2022-08-13T23:49:25.438Z,51.36
2022-08-13T23:51:59.204Z,51.52
2022-08-13T23:54:30.297Z,51.46
2022-08-13T23:57:00.289Z,51.57
2022-08-13T23:59:31.143Z,51.71
